sensor_id;sensor_type;location;lat;lon;timestamp;P1;durP1;ratioP1;P2;durP2;ratioP2
46777;SDS011;32536;47.128;8.746;2023-06-19T00:02:03;3.85;;;2.13;;
46777;SDS011;32536;47.128;8.746;2023-06-19T00:04:30;3.30;;;1.52;;
46777;SDS011;32536;47.128;8.746;2023-06-19T00:06:59;3.20;;;1.65;;
46777;SDS011;32536;47.128;8.746;2023-06-19T00:09:26;3.67;;;1.80;;
46777;SDS011;32536;47.128;8.746;2023-06-19T00:11:53;3.85;;;1.70;;
46777;SDS011;32536;47.128;8.746;2023-06-19T00:14:20;3.45;;;1.50;;
46777;SDS011;32536;47.128;8.746;2023-06-19T00:16:47;4.10;;;2.53;;
46777;SDS011;32536;47.128;8.746;2023-06-19T00:19:13;3.72;;;1.77;;
46777;SDS011;32536;47.128;8.746;2023-06-19T00:21:40;4.43;;;2.53;;
46777;SDS011;32536;47.128;8.746;2023-06-19T00:24:09;3.97;;;1.95;;
46777;SDS011;32536;47.128;8.746;2023-06-19T00:26:36;3.28;;;1.48;;
46777;SDS011;32536;47.128;8.746;2023-06-19T00:29:03;3.83;;;1.63;;
46777;SDS011;32536;47.128;8.746;2023-06-19T00:31:30;4.70;;;2.17;;
46777;SDS011;32536;47.128;8.746;2023-06-19T00:33:57;4.15;;;2.55;;
46777;SDS011;32536;47.128;8.746;2023-06-19T00:36:23;4.32;;;2.25;;
46777;SDS011;32536;47.128;8.746;2023-06-19T00:38:51;3.72;;;1.73;;
46777;SDS011;32536;47.128;8.746;2023-06-19T00:41:18;2.75;;;1.38;;
46777;SDS011;32536;47.128;8.746;2023-06-19T00:43:46;3.22;;;1.73;;
46777;SDS011;32536;47.128;8.746;2023-06-19T00:46:13;3.33;;;1.30;;
46777;SDS011;32536;47.128;8.746;2023-06-19T00:48:40;2.92;;;1.33;;
46777;SDS011;32536;47.128;8.746;2023-06-19T00:51:06;3.33;;;1.35;;
46777;SDS011;32536;47.128;8.746;2023-06-19T00:53:33;2.80;;;1.65;;
46777;SDS011;32536;47.128;8.746;2023-06-19T00:56:00;2.90;;;1.30;;
46777;SDS011;32536;47.128;8.746;2023-06-19T00:58:28;3.28;;;1.77;;
46777;SDS011;32536;47.128;8.746;2023-06-19T01:00:54;2.95;;;1.58;;
46777;SDS011;32536;47.128;8.746;2023-06-19T01:03:22;3.95;;;2.22;;
46777;SDS011;32536;47.128;8.746;2023-06-19T01:05:52;3.30;;;1.85;;
46777;SDS011;32536;47.128;8.746;2023-06-19T01:11:07;3.95;;;2.35;;
46777;SDS011;32536;47.128;8.746;2023-06-19T01:13:47;3.65;;;2.33;;
46777;SDS011;32536;47.128;8.746;2023-06-19T01:16:21;3.08;;;1.40;;
46777;SDS011;32536;47.128;8.746;2023-06-19T01:18:49;3.50;;;1.95;;
46777;SDS011;32536;47.128;8.746;2023-06-19T01:21:17;3.13;;;1.77;;
46777;SDS011;32536;47.128;8.746;2023-06-19T01:23:45;4.20;;;2.33;;
46777;SDS011;32536;47.128;8.746;2023-06-19T01:26:12;3.30;;;1.73;;
46777;SDS011;32536;47.128;8.746;2023-06-19T01:28:41;4.65;;;3.22;;
46777;SDS011;32536;47.128;8.746;2023-06-19T01:31:17;4.65;;;2.58;;
46777;SDS011;32536;47.128;8.746;2023-06-19T01:33:50;3.85;;;1.85;;
46777;SDS011;32536;47.128;8.746;2023-06-19T01:36:19;4.15;;;2.00;;
46777;SDS011;32536;47.128;8.746;2023-06-19T01:38:47;4.82;;;1.95;;
46777;SDS011;32536;47.128;8.746;2023-06-19T01:41:15;3.63;;;1.80;;
46777;SDS011;32536;47.128;8.746;2023-06-19T01:43:43;3.63;;;2.03;;
46777;SDS011;32536;47.128;8.746;2023-06-19T01:46:11;2.30;;;1.10;;
46777;SDS011;32536;47.128;8.746;2023-06-19T01:48:38;3.45;;;1.05;;
46777;SDS011;32536;47.128;8.746;2023-06-19T01:51:05;4.60;;;2.00;;
46777;SDS011;32536;47.128;8.746;2023-06-19T01:53:32;3.28;;;1.85;;
46777;SDS011;32536;47.128;8.746;2023-06-19T01:56:00;3.83;;;2.13;;
46777;SDS011;32536;47.128;8.746;2023-06-19T01:58:28;3.92;;;1.92;;
46777;SDS011;32536;47.128;8.746;2023-06-19T02:00:54;4.63;;;2.15;;
46777;SDS011;32536;47.128;8.746;2023-06-19T02:03:21;3.67;;;2.03;;
46777;SDS011;32536;47.128;8.746;2023-06-19T02:05:48;3.80;;;1.80;;
46777;SDS011;32536;47.128;8.746;2023-06-19T02:08:15;3.22;;;1.67;;
46777;SDS011;32536;47.128;8.746;2023-06-19T02:10:41;4.13;;;1.55;;
46777;SDS011;32536;47.128;8.746;2023-06-19T02:13:08;3.30;;;1.30;;
46777;SDS011;32536;47.128;8.746;2023-06-19T02:15:35;3.05;;;1.45;;
46777;SDS011;32536;47.128;8.746;2023-06-19T02:18:02;3.47;;;1.80;;
46777;SDS011;32536;47.128;8.746;2023-06-19T02:20:29;3.67;;;2.13;;
46777;SDS011;32536;47.128;8.746;2023-06-19T02:22:56;3.60;;;2.17;;
46777;SDS011;32536;47.128;8.746;2023-06-19T02:25:22;3.08;;;1.40;;
46777;SDS011;32536;47.128;8.746;2023-06-19T02:27:49;3.40;;;1.75;;
46777;SDS011;32536;47.128;8.746;2023-06-19T02:30:16;3.55;;;1.60;;
46777;SDS011;32536;47.128;8.746;2023-06-19T02:32:42;3.70;;;1.77;;
46777;SDS011;32536;47.128;8.746;2023-06-19T02:35:10;3.45;;;1.73;;
46777;SDS011;32536;47.128;8.746;2023-06-19T02:37:37;2.75;;;1.15;;
46777;SDS011;32536;47.128;8.746;2023-06-19T02:40:04;4.47;;;2.53;;
46777;SDS011;32536;47.128;8.746;2023-06-19T02:42:32;3.95;;;2.83;;
46777;SDS011;32536;47.128;8.746;2023-06-19T02:44:58;4.80;;;3.17;;
46777;SDS011;32536;47.128;8.746;2023-06-19T02:47:29;5.13;;;3.05;;
46777;SDS011;32536;47.128;8.746;2023-06-19T02:49:57;6.15;;;3.80;;
46777;SDS011;32536;47.128;8.746;2023-06-19T02:52:29;6.30;;;3.83;;
46777;SDS011;32536;47.128;8.746;2023-06-19T02:54:56;6.40;;;3.95;;
46777;SDS011;32536;47.128;8.746;2023-06-19T02:57:23;6.10;;;4.25;;
46777;SDS011;32536;47.128;8.746;2023-06-19T02:59:49;6.07;;;3.95;;
46777;SDS011;32536;47.128;8.746;2023-06-19T03:02:16;4.63;;;2.80;;
46777;SDS011;32536;47.128;8.746;2023-06-19T03:04:43;5.25;;;2.90;;
46777;SDS011;32536;47.128;8.746;2023-06-19T03:07:10;5.00;;;2.70;;
46777;SDS011;32536;47.128;8.746;2023-06-19T03:09:39;4.70;;;2.50;;
46777;SDS011;32536;47.128;8.746;2023-06-19T03:12:06;4.50;;;2.15;;
46777;SDS011;32536;47.128;8.746;2023-06-19T03:14:34;3.53;;;1.33;;
46777;SDS011;32536;47.128;8.746;2023-06-19T03:17:00;4.25;;;1.83;;
46777;SDS011;32536;47.128;8.746;2023-06-19T03:19:27;5.18;;;3.13;;
46777;SDS011;32536;47.128;8.746;2023-06-19T03:21:54;5.72;;;2.70;;
46777;SDS011;32536;47.128;8.746;2023-06-19T03:24:21;5.13;;;2.72;;
46777;SDS011;32536;47.128;8.746;2023-06-19T03:26:47;5.65;;;3.15;;
46777;SDS011;32536;47.128;8.746;2023-06-19T03:29:14;5.80;;;3.03;;
46777;SDS011;32536;47.128;8.746;2023-06-19T03:31:41;4.97;;;2.97;;
46777;SDS011;32536;47.128;8.746;2023-06-19T03:34:07;4.80;;;2.42;;
46777;SDS011;32536;47.128;8.746;2023-06-19T03:36:34;4.30;;;2.58;;
46777;SDS011;32536;47.128;8.746;2023-06-19T03:39:01;4.50;;;3.10;;
46777;SDS011;32536;47.128;8.746;2023-06-19T03:41:27;4.85;;;2.42;;
46777;SDS011;32536;47.128;8.746;2023-06-19T03:43:54;4.22;;;2.35;;
46777;SDS011;32536;47.128;8.746;2023-06-19T03:46:21;5.25;;;3.17;;
46777;SDS011;32536;47.128;8.746;2023-06-19T03:48:47;5.75;;;3.47;;
46777;SDS011;32536;47.128;8.746;2023-06-19T03:51:14;4.43;;;2.35;;
46777;SDS011;32536;47.128;8.746;2023-06-19T03:53:41;6.60;;;3.53;;
46777;SDS011;32536;47.128;8.746;2023-06-19T03:56:08;5.18;;;3.28;;
46777;SDS011;32536;47.128;8.746;2023-06-19T03:58:34;4.45;;;2.40;;
46777;SDS011;32536;47.128;8.746;2023-06-19T04:01:01;4.05;;;1.83;;
46777;SDS011;32536;47.128;8.746;2023-06-19T04:03:28;4.13;;;1.80;;
46777;SDS011;32536;47.128;8.746;2023-06-19T04:05:55;3.55;;;1.95;;
46777;SDS011;32536;47.128;8.746;2023-06-19T04:08:22;3.47;;;1.80;;
46777;SDS011;32536;47.128;8.746;2023-06-19T04:10:48;5.18;;;2.88;;
46777;SDS011;32536;47.128;8.746;2023-06-19T04:13:15;4.97;;;2.33;;
46777;SDS011;32536;47.128;8.746;2023-06-19T04:15:42;6.00;;;3.25;;
46777;SDS011;32536;47.128;8.746;2023-06-19T04:18:10;5.60;;;2.38;;
46777;SDS011;32536;47.128;8.746;2023-06-19T04:20:36;5.15;;;2.60;;
46777;SDS011;32536;47.128;8.746;2023-06-19T04:23:03;4.72;;;2.33;;
46777;SDS011;32536;47.128;8.746;2023-06-19T04:25:30;4.88;;;2.83;;
46777;SDS011;32536;47.128;8.746;2023-06-19T04:27:57;4.22;;;2.65;;
46777;SDS011;32536;47.128;8.746;2023-06-19T04:30:23;4.93;;;3.25;;
46777;SDS011;32536;47.128;8.746;2023-06-19T04:32:50;5.45;;;3.30;;
46777;SDS011;32536;47.128;8.746;2023-06-19T04:35:18;5.13;;;2.88;;
46777;SDS011;32536;47.128;8.746;2023-06-19T04:37:45;6.75;;;4.38;;
46777;SDS011;32536;47.128;8.746;2023-06-19T04:40:14;5.80;;;3.50;;
46777;SDS011;32536;47.128;8.746;2023-06-19T04:42:41;4.55;;;2.55;;
46777;SDS011;32536;47.128;8.746;2023-06-19T04:45:08;5.22;;;2.33;;
46777;SDS011;32536;47.128;8.746;2023-06-19T04:47:35;4.25;;;1.90;;
46777;SDS011;32536;47.128;8.746;2023-06-19T04:50:02;4.47;;;2.67;;
46777;SDS011;32536;47.128;8.746;2023-06-19T04:52:29;5.72;;;3.65;;
46777;SDS011;32536;47.128;8.746;2023-06-19T04:54:58;5.70;;;3.05;;
46777;SDS011;32536;47.128;8.746;2023-06-19T04:57:25;5.22;;;3.47;;
46777;SDS011;32536;47.128;8.746;2023-06-19T04:59:52;5.35;;;3.08;;
46777;SDS011;32536;47.128;8.746;2023-06-19T05:02:18;4.20;;;2.30;;
46777;SDS011;32536;47.128;8.746;2023-06-19T05:04:45;4.60;;;2.45;;
46777;SDS011;32536;47.128;8.746;2023-06-19T05:07:12;4.82;;;3.20;;
46777;SDS011;32536;47.128;8.746;2023-06-19T05:09:41;4.43;;;2.08;;
46777;SDS011;32536;47.128;8.746;2023-06-19T05:12:07;4.13;;;2.20;;
46777;SDS011;32536;47.128;8.746;2023-06-19T05:14:35;4.68;;;2.78;;
46777;SDS011;32536;47.128;8.746;2023-06-19T05:17:02;5.55;;;2.75;;
46777;SDS011;32536;47.128;8.746;2023-06-19T05:19:28;5.07;;;2.10;;
46777;SDS011;32536;47.128;8.746;2023-06-19T05:21:55;4.35;;;2.42;;
46777;SDS011;32536;47.128;8.746;2023-06-19T05:24:22;4.60;;;2.30;;
46777;SDS011;32536;47.128;8.746;2023-06-19T05:26:48;5.28;;;2.47;;
46777;SDS011;32536;47.128;8.746;2023-06-19T05:29:15;6.05;;;3.33;;
46777;SDS011;32536;47.128;8.746;2023-06-19T05:31:42;8.60;;;3.92;;
46777;SDS011;32536;47.128;8.746;2023-06-19T05:34:08;4.65;;;2.67;;
46777;SDS011;32536;47.128;8.746;2023-06-19T05:36:35;4.63;;;2.55;;
46777;SDS011;32536;47.128;8.746;2023-06-19T05:39:02;3.47;;;1.80;;
46777;SDS011;32536;47.128;8.746;2023-06-19T05:41:29;6.40;;;2.13;;
46777;SDS011;32536;47.128;8.746;2023-06-19T05:43:56;4.10;;;2.20;;
46777;SDS011;32536;47.128;8.746;2023-06-19T05:46:23;5.10;;;2.08;;
46777;SDS011;32536;47.128;8.746;2023-06-19T05:48:50;5.43;;;3.28;;
46777;SDS011;32536;47.128;8.746;2023-06-19T05:51:16;4.18;;;2.25;;
46777;SDS011;32536;47.128;8.746;2023-06-19T05:53:43;4.53;;;2.25;;
46777;SDS011;32536;47.128;8.746;2023-06-19T05:56:10;4.72;;;2.15;;
46777;SDS011;32536;47.128;8.746;2023-06-19T05:58:36;3.80;;;1.58;;
46777;SDS011;32536;47.128;8.746;2023-06-19T06:01:04;3.92;;;2.05;;
46777;SDS011;32536;47.128;8.746;2023-06-19T06:03:31;3.75;;;1.63;;
46777;SDS011;32536;47.128;8.746;2023-06-19T06:05:57;3.65;;;2.30;;
46777;SDS011;32536;47.128;8.746;2023-06-19T06:08:29;4.13;;;1.95;;
46777;SDS011;32536;47.128;8.746;2023-06-19T06:10:56;6.20;;;3.35;;
46777;SDS011;32536;47.128;8.746;2023-06-19T06:13:22;6.15;;;3.78;;
46777;SDS011;32536;47.128;8.746;2023-06-19T06:15:50;5.55;;;3.47;;
46777;SDS011;32536;47.128;8.746;2023-06-19T06:18:17;6.25;;;4.05;;
46777;SDS011;32536;47.128;8.746;2023-06-19T06:20:44;5.75;;;2.92;;
46777;SDS011;32536;47.128;8.746;2023-06-19T06:23:11;4.72;;;3.03;;
46777;SDS011;32536;47.128;8.746;2023-06-19T06:25:37;4.72;;;3.10;;
46777;SDS011;32536;47.128;8.746;2023-06-19T06:28:05;5.57;;;3.25;;
46777;SDS011;32536;47.128;8.746;2023-06-19T06:30:31;5.68;;;3.38;;
46777;SDS011;32536;47.128;8.746;2023-06-19T06:32:58;5.53;;;3.60;;
46777;SDS011;32536;47.128;8.746;2023-06-19T06:35:25;4.68;;;2.40;;
46777;SDS011;32536;47.128;8.746;2023-06-19T06:37:51;5.70;;;3.35;;
46777;SDS011;32536;47.128;8.746;2023-06-19T06:40:18;6.53;;;3.42;;
46777;SDS011;32536;47.128;8.746;2023-06-19T06:42:45;5.22;;;2.80;;
46777;SDS011;32536;47.128;8.746;2023-06-19T06:45:12;6.20;;;3.97;;
46777;SDS011;32536;47.128;8.746;2023-06-19T06:47:39;5.80;;;3.72;;
46777;SDS011;32536;47.128;8.746;2023-06-19T06:50:07;4.80;;;2.72;;
46777;SDS011;32536;47.128;8.746;2023-06-19T06:52:35;4.55;;;3.05;;
46777;SDS011;32536;47.128;8.746;2023-06-19T06:55:02;5.00;;;2.30;;
46777;SDS011;32536;47.128;8.746;2023-06-19T06:57:29;5.00;;;3.20;;
46777;SDS011;32536;47.128;8.746;2023-06-19T06:59:56;4.47;;;3.03;;
46777;SDS011;32536;47.128;8.746;2023-06-19T07:02:22;4.60;;;2.95;;
46777;SDS011;32536;47.128;8.746;2023-06-19T07:04:49;3.40;;;1.70;;
46777;SDS011;32536;47.128;8.746;2023-06-19T07:07:16;3.80;;;2.03;;
46777;SDS011;32536;47.128;8.746;2023-06-19T07:09:42;4.53;;;2.42;;
46777;SDS011;32536;47.128;8.746;2023-06-19T07:12:09;5.30;;;3.35;;
46777;SDS011;32536;47.128;8.746;2023-06-19T07:14:36;4.65;;;2.75;;
46777;SDS011;32536;47.128;8.746;2023-06-19T07:17:03;4.57;;;3.13;;
46777;SDS011;32536;47.128;8.746;2023-06-19T07:19:32;3.95;;;1.67;;
46777;SDS011;32536;47.128;8.746;2023-06-19T07:21:59;4.00;;;2.25;;
46777;SDS011;32536;47.128;8.746;2023-06-19T07:24:26;4.88;;;3.33;;
46777;SDS011;32536;47.128;8.746;2023-06-19T07:26:52;4.07;;;1.92;;
46777;SDS011;32536;47.128;8.746;2023-06-19T07:29:19;5.20;;;2.95;;
46777;SDS011;32536;47.128;8.746;2023-06-19T07:31:47;7.03;;;4.10;;
46777;SDS011;32536;47.128;8.746;2023-06-19T07:34:13;5.85;;;3.42;;
46777;SDS011;32536;47.128;8.746;2023-06-19T07:36:40;5.85;;;3.55;;
46777;SDS011;32536;47.128;8.746;2023-06-19T07:39:07;6.47;;;3.95;;
46777;SDS011;32536;47.128;8.746;2023-06-19T07:41:35;5.38;;;3.55;;
46777;SDS011;32536;47.128;8.746;2023-06-19T07:44:03;5.57;;;3.35;;
46777;SDS011;32536;47.128;8.746;2023-06-19T07:46:29;6.95;;;4.00;;
46777;SDS011;32536;47.128;8.746;2023-06-19T07:48:56;5.90;;;3.97;;
46777;SDS011;32536;47.128;8.746;2023-06-19T07:51:23;5.18;;;3.20;;
46777;SDS011;32536;47.128;8.746;2023-06-19T07:53:50;6.25;;;3.72;;
46777;SDS011;32536;47.128;8.746;2023-06-19T07:56:16;6.40;;;4.22;;
46777;SDS011;32536;47.128;8.746;2023-06-19T07:58:43;6.43;;;4.22;;
46777;SDS011;32536;47.128;8.746;2023-06-19T08:01:10;6.15;;;3.63;;
46777;SDS011;32536;47.128;8.746;2023-06-19T08:03:36;5.88;;;3.90;;
46777;SDS011;32536;47.128;8.746;2023-06-19T08:06:03;6.00;;;3.60;;
46777;SDS011;32536;47.128;8.746;2023-06-19T08:08:30;5.50;;;3.47;;
46777;SDS011;32536;47.128;8.746;2023-06-19T08:10:57;6.18;;;3.00;;
46777;SDS011;32536;47.128;8.746;2023-06-19T08:13:23;5.32;;;3.13;;
46777;SDS011;32536;47.128;8.746;2023-06-19T08:15:50;5.38;;;2.97;;
46777;SDS011;32536;47.128;8.746;2023-06-19T08:18:17;6.72;;;4.35;;
46777;SDS011;32536;47.128;8.746;2023-06-19T08:20:43;4.55;;;2.53;;
46777;SDS011;32536;47.128;8.746;2023-06-19T08:23:10;3.70;;;2.13;;
46777;SDS011;32536;47.128;8.746;2023-06-19T08:25:37;5.70;;;3.42;;
46777;SDS011;32536;47.128;8.746;2023-06-19T08:28:03;5.05;;;2.80;;
46777;SDS011;32536;47.128;8.746;2023-06-19T08:30:30;5.15;;;2.83;;
46777;SDS011;32536;47.128;8.746;2023-06-19T08:32:57;5.70;;;3.50;;
46777;SDS011;32536;47.128;8.746;2023-06-19T08:35:24;8.02;;;5.97;;
46777;SDS011;32536;47.128;8.746;2023-06-19T08:37:51;5.68;;;3.78;;
46777;SDS011;32536;47.128;8.746;2023-06-19T08:40:17;5.43;;;3.25;;
46777;SDS011;32536;47.128;8.746;2023-06-19T08:42:45;4.90;;;2.42;;
46777;SDS011;32536;47.128;8.746;2023-06-19T08:45:13;4.05;;;2.20;;
46777;SDS011;32536;47.128;8.746;2023-06-19T08:47:39;5.20;;;2.95;;
46777;SDS011;32536;47.128;8.746;2023-06-19T08:50:06;6.63;;;3.97;;
46777;SDS011;32536;47.128;8.746;2023-06-19T08:52:33;5.30;;;2.90;;
46777;SDS011;32536;47.128;8.746;2023-06-19T08:55:00;5.60;;;3.97;;
46777;SDS011;32536;47.128;8.746;2023-06-19T08:57:37;5.22;;;2.75;;
46777;SDS011;32536;47.128;8.746;2023-06-19T09:00:05;5.88;;;3.30;;
46777;SDS011;32536;47.128;8.746;2023-06-19T09:02:36;4.60;;;2.50;;
46777;SDS011;32536;47.128;8.746;2023-06-19T09:05:15;4.10;;;2.38;;
46777;SDS011;32536;47.128;8.746;2023-06-19T09:07:44;5.85;;;3.63;;
46777;SDS011;32536;47.128;8.746;2023-06-19T09:10:21;6.95;;;4.05;;
46777;SDS011;32536;47.128;8.746;2023-06-19T09:12:56;5.22;;;3.05;;
46777;SDS011;32536;47.128;8.746;2023-06-19T09:15:38;4.93;;;2.63;;
46777;SDS011;32536;47.128;8.746;2023-06-19T09:18:05;5.00;;;2.67;;
46777;SDS011;32536;47.128;8.746;2023-06-19T09:20:37;4.50;;;2.60;;
46777;SDS011;32536;47.128;8.746;2023-06-19T09:23:12;4.65;;;2.20;;
46777;SDS011;32536;47.128;8.746;2023-06-19T09:28:20;5.88;;;3.58;;
46777;SDS011;32536;47.128;8.746;2023-06-19T09:33:24;4.18;;;2.30;;
46777;SDS011;32536;47.128;8.746;2023-06-19T09:35:54;3.97;;;2.15;;
46777;SDS011;32536;47.128;8.746;2023-06-19T09:38:23;6.75;;;3.30;;
46777;SDS011;32536;47.128;8.746;2023-06-19T09:40:55;5.47;;;3.53;;
46777;SDS011;32536;47.128;8.746;2023-06-19T09:43:29;5.70;;;2.78;;
46777;SDS011;32536;47.128;8.746;2023-06-19T09:46:09;5.40;;;3.53;;
46777;SDS011;32536;47.128;8.746;2023-06-19T09:48:49;5.15;;;3.10;;
46777;SDS011;32536;47.128;8.746;2023-06-19T09:51:27;6.43;;;5.05;;
46777;SDS011;32536;47.128;8.746;2023-06-19T09:53:58;6.68;;;4.72;;
46777;SDS011;32536;47.128;8.746;2023-06-19T09:56:28;5.55;;;3.42;;
46777;SDS011;32536;47.128;8.746;2023-06-19T09:58:59;5.82;;;3.97;;
46777;SDS011;32536;47.128;8.746;2023-06-19T10:04:01;5.60;;;3.67;;
46777;SDS011;32536;47.128;8.746;2023-06-19T10:06:32;5.55;;;3.25;;
46777;SDS011;32536;47.128;8.746;2023-06-19T10:09:08;6.15;;;3.83;;
46777;SDS011;32536;47.128;8.746;2023-06-19T10:11:48;6.38;;;3.85;;
46777;SDS011;32536;47.128;8.746;2023-06-19T10:14:20;6.82;;;4.35;;
46777;SDS011;32536;47.128;8.746;2023-06-19T10:16:48;5.82;;;4.20;;
46777;SDS011;32536;47.128;8.746;2023-06-19T10:19:15;5.20;;;3.08;;
46777;SDS011;32536;47.128;8.746;2023-06-19T10:21:44;5.70;;;3.33;;
46777;SDS011;32536;47.128;8.746;2023-06-19T10:24:17;5.95;;;3.53;;
46777;SDS011;32536;47.128;8.746;2023-06-19T10:26:55;5.20;;;3.30;;
46777;SDS011;32536;47.128;8.746;2023-06-19T10:29:26;5.22;;;2.70;;
46777;SDS011;32536;47.128;8.746;2023-06-19T10:32:03;5.30;;;2.97;;
46777;SDS011;32536;47.128;8.746;2023-06-19T10:34:34;6.13;;;3.35;;
46777;SDS011;32536;47.128;8.746;2023-06-19T10:37:01;4.50;;;2.28;;
46777;SDS011;32536;47.128;8.746;2023-06-19T10:39:30;4.22;;;2.33;;
46777;SDS011;32536;47.128;8.746;2023-06-19T10:41:56;4.18;;;2.28;;
46777;SDS011;32536;47.128;8.746;2023-06-19T10:44:24;4.90;;;2.75;;
46777;SDS011;32536;47.128;8.746;2023-06-19T10:46:52;5.03;;;2.53;;
46777;SDS011;32536;47.128;8.746;2023-06-19T10:49:19;4.18;;;2.22;;
46777;SDS011;32536;47.128;8.746;2023-06-19T10:51:47;4.72;;;2.58;;
46777;SDS011;32536;47.128;8.746;2023-06-19T10:54:14;3.58;;;2.03;;
46777;SDS011;32536;47.128;8.746;2023-06-19T10:56:41;4.35;;;1.80;;
46777;SDS011;32536;47.128;8.746;2023-06-19T10:59:14;3.75;;;2.10;;
46777;SDS011;32536;47.128;8.746;2023-06-19T11:01:41;4.85;;;3.15;;
46777;SDS011;32536;47.128;8.746;2023-06-19T11:04:12;4.20;;;2.25;;
46777;SDS011;32536;47.128;8.746;2023-06-19T11:06:41;4.93;;;3.42;;
46777;SDS011;32536;47.128;8.746;2023-06-19T11:11:57;3.70;;;1.73;;
46777;SDS011;32536;47.128;8.746;2023-06-19T11:14:28;4.35;;;2.15;;
46777;SDS011;32536;47.128;8.746;2023-06-19T11:16:56;3.92;;;2.13;;
46777;SDS011;32536;47.128;8.746;2023-06-19T11:19:23;5.15;;;2.30;;
46777;SDS011;32536;47.128;8.746;2023-06-19T11:21:57;5.43;;;2.42;;
46777;SDS011;32536;47.128;8.746;2023-06-19T11:24:25;5.00;;;2.30;;
46777;SDS011;32536;47.128;8.746;2023-06-19T11:26:52;4.65;;;1.85;;
46777;SDS011;32536;47.128;8.746;2023-06-19T11:29:26;5.18;;;2.42;;
46777;SDS011;32536;47.128;8.746;2023-06-19T11:32:07;5.35;;;3.13;;
46777;SDS011;32536;47.128;8.746;2023-06-19T11:34:38;5.40;;;2.47;;
46777;SDS011;32536;47.128;8.746;2023-06-19T11:37:17;5.30;;;2.70;;
46777;SDS011;32536;47.128;8.746;2023-06-19T11:39:46;5.22;;;2.83;;
46777;SDS011;32536;47.128;8.746;2023-06-19T11:42:16;4.90;;;2.55;;
46777;SDS011;32536;47.128;8.746;2023-06-19T11:44:56;4.90;;;2.40;;
46777;SDS011;32536;47.128;8.746;2023-06-19T11:47:32;4.75;;;2.15;;
46777;SDS011;32536;47.128;8.746;2023-06-19T11:50:00;4.18;;;2.08;;
46777;SDS011;32536;47.128;8.746;2023-06-19T11:52:29;3.45;;;1.95;;
46777;SDS011;32536;47.128;8.746;2023-06-19T11:54:55;3.47;;;1.60;;
46777;SDS011;32536;47.128;8.746;2023-06-19T11:57:22;4.75;;;2.72;;
46777;SDS011;32536;47.128;8.746;2023-06-19T11:59:49;5.03;;;3.00;;
46777;SDS011;32536;47.128;8.746;2023-06-19T12:02:16;4.82;;;2.85;;
46777;SDS011;32536;47.128;8.746;2023-06-19T12:04:42;5.18;;;3.22;;
46777;SDS011;32536;47.128;8.746;2023-06-19T12:07:09;4.68;;;2.72;;
46777;SDS011;32536;47.128;8.746;2023-06-19T12:09:37;5.00;;;2.83;;
46777;SDS011;32536;47.128;8.746;2023-06-19T12:12:05;4.97;;;3.28;;
46777;SDS011;32536;47.128;8.746;2023-06-19T12:14:33;4.82;;;2.72;;
46777;SDS011;32536;47.128;8.746;2023-06-19T12:17:00;4.32;;;2.25;;
46777;SDS011;32536;47.128;8.746;2023-06-19T12:19:26;4.53;;;2.33;;
46777;SDS011;32536;47.128;8.746;2023-06-19T12:21:53;4.80;;;2.30;;
46777;SDS011;32536;47.128;8.746;2023-06-19T12:24:20;3.90;;;1.85;;
46777;SDS011;32536;47.128;8.746;2023-06-19T12:26:47;4.47;;;2.30;;
46777;SDS011;32536;47.128;8.746;2023-06-19T12:29:13;3.95;;;2.38;;
46777;SDS011;32536;47.128;8.746;2023-06-19T12:31:40;3.97;;;1.85;;
46777;SDS011;32536;47.128;8.746;2023-06-19T12:34:09;4.35;;;2.33;;
46777;SDS011;32536;47.128;8.746;2023-06-19T12:36:36;5.82;;;3.58;;
46777;SDS011;32536;47.128;8.746;2023-06-19T12:39:03;5.68;;;2.70;;
46777;SDS011;32536;47.128;8.746;2023-06-19T12:41:38;4.63;;;2.40;;
46777;SDS011;32536;47.128;8.746;2023-06-19T12:44:05;4.05;;;2.35;;
46777;SDS011;32536;47.128;8.746;2023-06-19T12:46:32;4.32;;;1.73;;
46777;SDS011;32536;47.128;8.746;2023-06-19T12:49:01;4.65;;;2.83;;
46777;SDS011;32536;47.128;8.746;2023-06-19T12:51:27;4.60;;;2.50;;
46777;SDS011;32536;47.128;8.746;2023-06-19T12:53:54;4.63;;;2.13;;
46777;SDS011;32536;47.128;8.746;2023-06-19T12:56:21;4.85;;;2.38;;
46777;SDS011;32536;47.128;8.746;2023-06-19T12:58:48;3.88;;;2.00;;
46777;SDS011;32536;47.128;8.746;2023-06-19T13:01:14;4.47;;;2.33;;
46777;SDS011;32536;47.128;8.746;2023-06-19T13:03:41;5.85;;;3.72;;
46777;SDS011;32536;47.128;8.746;2023-06-19T13:06:08;5.47;;;2.88;;
46777;SDS011;32536;47.128;8.746;2023-06-19T13:08:35;5.35;;;3.15;;
46777;SDS011;32536;47.128;8.746;2023-06-19T13:11:01;5.13;;;2.90;;
46777;SDS011;32536;47.128;8.746;2023-06-19T13:13:28;6.22;;;3.92;;
46777;SDS011;32536;47.128;8.746;2023-06-19T13:15:55;6.13;;;3.70;;
46777;SDS011;32536;47.128;8.746;2023-06-19T13:18:22;5.65;;;2.97;;
46777;SDS011;32536;47.128;8.746;2023-06-19T13:20:49;4.78;;;2.45;;
46777;SDS011;32536;47.128;8.746;2023-06-19T13:23:15;4.72;;;2.40;;
46777;SDS011;32536;47.128;8.746;2023-06-19T13:25:42;5.10;;;3.22;;
46777;SDS011;32536;47.128;8.746;2023-06-19T13:28:09;4.35;;;2.42;;
46777;SDS011;32536;47.128;8.746;2023-06-19T13:30:36;5.00;;;3.03;;
46777;SDS011;32536;47.128;8.746;2023-06-19T13:33:02;5.88;;;3.05;;
46777;SDS011;32536;47.128;8.746;2023-06-19T13:35:29;5.43;;;3.20;;
46777;SDS011;32536;47.128;8.746;2023-06-19T13:37:56;4.88;;;2.60;;
46777;SDS011;32536;47.128;8.746;2023-06-19T13:40:23;5.55;;;2.53;;
46777;SDS011;32536;47.128;8.746;2023-06-19T13:42:50;5.55;;;2.42;;
46777;SDS011;32536;47.128;8.746;2023-06-19T13:45:16;4.50;;;2.60;;
46777;SDS011;32536;47.128;8.746;2023-06-19T13:47:43;7.88;;;2.65;;
46777;SDS011;32536;47.128;8.746;2023-06-19T13:50:10;5.15;;;2.13;;
46777;SDS011;32536;47.128;8.746;2023-06-19T13:52:44;4.93;;;2.20;;
46777;SDS011;32536;47.128;8.746;2023-06-19T13:55:13;4.75;;;2.85;;
46777;SDS011;32536;47.128;8.746;2023-06-19T13:57:41;5.22;;;3.42;;
46777;SDS011;32536;47.128;8.746;2023-06-19T14:00:09;4.70;;;2.92;;
46777;SDS011;32536;47.128;8.746;2023-06-19T14:02:37;4.55;;;2.65;;
46777;SDS011;32536;47.128;8.746;2023-06-19T14:05:05;5.35;;;2.65;;
46777;SDS011;32536;47.128;8.746;2023-06-19T14:07:37;4.53;;;2.45;;
46777;SDS011;32536;47.128;8.746;2023-06-19T14:10:04;4.45;;;2.60;;
46777;SDS011;32536;47.128;8.746;2023-06-19T14:12:31;3.85;;;2.05;;
46777;SDS011;32536;47.128;8.746;2023-06-19T14:14:58;3.42;;;1.75;;
46777;SDS011;32536;47.128;8.746;2023-06-19T14:17:25;4.38;;;2.63;;
46777;SDS011;32536;47.128;8.746;2023-06-19T14:19:52;3.72;;;1.77;;
46777;SDS011;32536;47.128;8.746;2023-06-19T14:22:21;4.07;;;1.70;;
46777;SDS011;32536;47.128;8.746;2023-06-19T14:24:47;4.28;;;1.90;;
46777;SDS011;32536;47.128;8.746;2023-06-19T14:27:14;4.13;;;1.65;;
46777;SDS011;32536;47.128;8.746;2023-06-19T14:29:41;4.03;;;1.80;;
46777;SDS011;32536;47.128;8.746;2023-06-19T14:32:08;3.05;;;1.58;;
46777;SDS011;32536;47.128;8.746;2023-06-19T14:34:34;6.00;;;2.20;;
46777;SDS011;32536;47.128;8.746;2023-06-19T14:37:01;2.70;;;1.10;;
46777;SDS011;32536;47.128;8.746;2023-06-19T14:39:28;3.88;;;2.00;;
46777;SDS011;32536;47.128;8.746;2023-06-19T14:41:55;6.38;;;2.17;;
46777;SDS011;32536;47.128;8.746;2023-06-19T14:44:21;3.10;;;1.45;;
46777;SDS011;32536;47.128;8.746;2023-06-19T14:46:48;3.90;;;2.20;;
46777;SDS011;32536;47.128;8.746;2023-06-19T14:49:15;3.95;;;1.98;;
46777;SDS011;32536;47.128;8.746;2023-06-19T14:51:42;4.13;;;1.95;;
46777;SDS011;32536;47.128;8.746;2023-06-19T14:54:09;3.90;;;2.33;;
46777;SDS011;32536;47.128;8.746;2023-06-19T14:56:36;5.63;;;3.03;;
46777;SDS011;32536;47.128;8.746;2023-06-19T14:59:02;6.25;;;3.90;;
46777;SDS011;32536;47.128;8.746;2023-06-19T15:01:29;5.55;;;3.25;;
46777;SDS011;32536;47.128;8.746;2023-06-19T15:03:56;6.15;;;3.92;;
46777;SDS011;32536;47.128;8.746;2023-06-19T15:06:22;7.80;;;5.13;;